aviador You're here:

KCIU Decoded Metar

CHIPPEWA INTL in MI, USA
Report Time2018-01-16 23:56:00
UTC Time2018-01-17 01:17:52
Flight Rules Old
Wind260° at 04 kt
W.Decomp.*RWY 27: 4.0 kt HW 0.3 kt LCW
RWY 34: 1.1 kt HW 3.8 kt LCW
W.Rank260° ranks 6
Current wind is below 260° avg. (6.7)
Visibility9999 m
Phenomena:N/A
Clouds:N/A
Expected CloudBase > 800 ft AGL from Temp-Dew spread
CeilingNone
Temp-14°C (ISA -27)
Dew Point-16°C (85% RH)
AAT-18.9°C
QNH1029 hPa
Density Alt-3,173 ft
Elevation801 ft
Report Wrong Elevation
Raw Report
KCIU 162356Z AUTO 26004KT 10SM CLR M14/M16 A3040 RMK AO2 SLP326
6//// T11391161 11067 21139 51001 FZRANO PNO $=

Extra information for KCIU:More info

Metar Taf Metar & Taf Last 4 Metars F.Rules Stats Wind Profile Meteogram Temp Stats Airport Information Weather charts Add Link Nearby VenuesMetar ALERT Operation Metar Decoded Social comments

AIRNAV info for KCIU